Crestline (CTL1, 214) Station Data

Red Flag Warning: No
Fire Weather Zone: 258
SDGE Region: North East
Lat/Lon: 33.308/-116.855

Observations

Time Wind Speed/Gust Temp(F) RH Fuel Moist Fuel Temp(F) Dewpt(F) Tmax(F) Tmin(F) Accum Precip 10-min Precip SL Press(mb)
6/22 5:00am 227 4 G 7 77° 6% - - 78.6° 73.4° - - 1007.0
6/22 4:50am 228 4 G 6 78° 5% - - 78.6° 73.4° - - 1007.0
6/22 4:40am 226 4 G 7 78° 5% - - 78.6° 73.4° - - 1007.0
6/22 4:30am 226 4 G 8 78° 6% - - 78.6° 73.4° - - 1007.0
6/22 4:20am 228 3 G 6 78° 5% - - 78.5° 73.4° - - 1007.0
6/22 4:10am 228 4 G 7 78° 5% - - 78.5° 73.4° - - 1007.0
6/22 4:00am 223 4 G 6 78° 4% - - - 78.3° 73.4° - - 1007.0
6/22 3:50am 227 4 G 6 78° 5% - - - 78.2° 73.4° - - 1007.0
6/22 3:40am 222 4 G 6 78° 5% - - 78.2° 73.4° - - 1007.0
6/22 3:30am 220 4 G 6 78° 6% - - 78.2° 73.4° - - 1007.0
6/22 3:20am 219 4 G 7 78° 6% - - 78.2° 73.4° - - 1007.0
6/22 3:10am 221 4 G 6 77° 7% - - 77.8° 73.4° - - 1007.0
6/22 3:00am 227 3 G 5 76° 9% - - 12° 76.9° 73.4° - - 1007.0
6/22 2:50am 233 2 G 4 76° 10% - - 14° 76.6° 73.4° - - 1008.0
6/22 2:40am 232 3 G 4 76° 9% - - 14° 76.6° 73.4° - - 1008.0
6/22 2:30am 231 3 G 5 76° 9% - - 14° 76.6° 73.4° - - 1008.0
6/22 2:20am 230 2 G 3 75° 10% - - 14° 76.6° 73.4° - - 1008.0
6/22 2:10am 224 1 G 3 75° 10% - - 14° 76.6° 73.4° - - 1008.0
6/22 2:00am 234 2 G 5 76° 10% - - 14° 76.6° 73.4° - - 1008.0
6/22 1:50am 232 3 G 4 76° 9% - - 14° 76.6° 73.4° - - 1008.0
6/22 1:40am 228 3 G 4 76° 9% - - 14° 76.4° 73.4° - - 1008.0
6/22 1:30am 231 2 G 4 76° 9% - - 14° 76.2° 73.4° - - 1008.0
6/22 1:20am 229 1 G 5 75° 10% - - 14° 75.7° 73.4° - - 1008.0
6/22 1:10am 237 0 G 2 74° 10% - - 13° 75.1° 73.4° - - 1009.0
6/22 1:00am 226 0 G 1 74° 10% - - 13° 75.1° 73.4° - - 1009.0
6/22 12:50am 261 1 G 2 74° 10% - - 13° 75.1° 73.4° - - 1009.0
6/22 12:40am 265 1 G 3 74° 10% - - 13° 75.1° 73.4° - - 1009.0
6/22 12:30am 265 1 G 2 74° 9% - - 13° 75.1° 73.4° - - 1009.0
6/22 12:20am 277 1 G 2 74° 9% - - 12° 75.1° 73.8° - - 1009.0
6/22 12:10am 255 1 G 2 74° 9% - - 12° 75.1° 73.8° - - 1009.0
6/22 12:00am 302 1 G 2 75° 9% - - 12° 85.9° 73.8° - - 1009.0
6/21 11:50pm 317 1 G 3 75° 9% - - 11° 85.9° 73.8° - - 1009.0
6/21 11:40pm 326 1 G 3 75° 9% - - 11° 85.9° 73.8° - - 1009.0
6/21 11:30pm 310 1 G 2 74° 8% - - 10° 85.9° 73.8° - - 1009.0
6/21 11:20pm 309 1 G 2 74° 8% - - 11° 85.9° 73.8° - - 1009.0
6/21 11:10pm 300 1 G 2 74° 9% - - 12° 85.9° 73.8° - - 1009.0
6/21 11:00pm 289 1 G 2 75° 9% - - 13° 85.9° 73.9° - - 1009.0
6/21 10:50pm 292 1 G 2 75° 9% - - 11° 85.9° 74.4° - - 1009.0
6/21 10:40pm 323 1 G 1 75° 8% - - 10° 85.9° 74.4° - - 1009.0
6/21 10:30pm 335 1 G 2 75° 9% - - 11° 85.9° 74.7° - - 1009.0
6/21 10:20pm 310 1 G 2 75° 9% - - 12° 85.9° 74.7° - - 1009.0
6/21 10:10pm 269 0 G 1 76° 10% - - 15° 85.9° 75.2° - - 1009.0
6/21 10:00pm 283 0 G 2 76° 9% - - 13° 85.9° 75.2° - - 1008.0
6/21 9:50pm 274 1 G 1 76° 9% - - 12° 85.9° 75.2° - - 1008.0
6/21 9:40pm 309 0 G 1 76° 9% - - 13° 85.9° 75.2° - - 1008.0
6/21 9:30pm 327 1 G 1 76° 9% - - 13° 85.9° 75.2° - - 1008.0
6/21 9:20pm 316 1 G 2 76° 9% - - 13° 85.9° 75.5° - - 1008.0
6/21 9:10pm 278 1 G 2 76° 8% - - 11° 85.9° 75.5° - - 1008.0
6/21 9:00pm 278 0 G 2 77° 8% - - 11° 85.9° 75.5° - - 1008.0
6/21 8:50pm 314 0 G 1 77° 8% - - 12° 85.9° 75.5° - - 1008.0
6/21 8:40pm 239 0 G 1 78° 8% - - 11° 85.9° 75.5° - - 1007.0
6/21 8:30pm 226 1 G 3 78° 8% - - 12° 85.9° 75.5° - - 1007.0
6/21 8:20pm 226 2 G 2 79° 8% - - 12° 85.9° 75.5° - - 1007.0
6/21 8:10pm 214 1 G 4 79° 8% - - 13° 85.9° 75.5° - - 1007.0
6/21 8:00pm 222 1 G 3 79° 9% - - 15° 85.9° 75.5° - - 1007.0
6/21 7:50pm 219 0 G 1 79° 9% - - 16° 85.9° 75.5° - - 1007.0
6/21 7:40pm 221 1 G 3 80° 9% - - 17° 85.9° 75.5° - - 1007.0
6/21 7:30pm 213 1 G 3 80° 10% - - 19° 85.9° 75.5° - - 1007.0
6/21 7:20pm 207 1 G 3 81° 11% - - 21° 85.9° 75.5° - - 1006.0
6/21 7:10pm 214 1 G 3 81° 13% - - 25° 85.9° 75.5° - - 1006.0
6/21 7:00pm 246 0 G 2 82° 13% - - 27° 85.9° 75.5° - - 1006.0
6/21 6:50pm 225 1 G 4 81° 12% - - 24° 85.9° 75.5° - - 1006.0
6/21 6:40pm 235 1 G 3 81° 14% - - 28° 85.9° 75.5° - - 1006.0
6/21 6:30pm 226 2 G 4 82° 15% - - 29° 85.9° 75.5° - - 1006.0
6/21 6:20pm 213 2 G 5 82° 14% - - 29° 85.9° 75.5° - - 1006.0
6/21 6:10pm 218 2 G 5 82° 15% - - 29° 85.9° 75.5° - - 1006.0
6/21 6:00pm 212 2 G 5 83° 16% - - 32° 85.9° 75.5° - - 1006.0
6/21 5:50pm 223 2 G 5 83° 17% - - 33° 85.9° 75.5° - - 1005.0
6/21 5:40pm 219 2 G 4 83° 18% - - 35° 85.9° 75.5° - - 1006.0
6/21 5:30pm 206 2 G 4 82° 22% - - 39° 85.9° 75.5° - - 1006.0
6/21 5:20pm 203 3 G 6 82° 23% - - 40° 85.9° 75.5° - - 1006.0
6/21 5:10pm 205 3 G 6 83° 21% - - 38° 85.9° 75.5° - - 1006.0
6/21 5:00pm 214 3 G 5 83° 21% - - 38° 85.9° 75.5° - - 1006.0
6/21 4:50pm 216 3 G 5 83° 17% - - 34° 85.9° 75.5° - - 1006.0
6/21 4:40pm 216 3 G 6 83° 25% - - 43° 85.9° 75.5° - - 1006.0
6/21 4:30pm 208 3 G 6 83° 30% - - 48° 85.9° 75.5° - - 1006.0
6/21 4:20pm 207 3 G 6 83° 22% - - 41° 85.9° 75.5° - - 1006.0
6/21 4:10pm 204 3 G 6 83° 25% - - 43° 85.9° 75.5° - - 1006.0
6/21 4:00pm 205 3 G 6 83° 25% - - 43° 85.9° 75.5° - - 1007.0
6/21 3:50pm 216 3 G 7 83° 33% - - 50° 85.9° 75.5° - - 1007.0
6/21 3:40pm 215 3 G 6 82° 38% - - 54° 85.9° 75.5° - - 1007.0
6/21 3:30pm 226 3 G 5 84° 31% - - 50° 85.9° 75.5° - - 1007.0
6/21 3:20pm 219 3 G 6 83° 32% - - 50° 85.9° 75.5° - - 1007.0
6/21 3:10pm 216 3 G 6 83° 35% - - 52° 85.9° 75.5° - - 1007.0
6/21 3:00pm 206 3 G 7 83° 37% - - 54° 85.9° 75.5° - - 1007.0
6/21 2:50pm 214 3 G 7 83° 33% - - 51° 85.9° 75.5° - - 1007.0
6/21 2:40pm 215 3 G 6 84° 29% - - 48° 85.9° 75.5° - - 1007.0
6/21 2:30pm 206 3 G 7 84° 29% - - 48° 85.9° 75.5° - - 1007.0
6/21 2:20pm 208 4 G 7 83° 32% - - 50° 85.9° 75.5° - - 1008.0
6/21 2:10pm 214 4 G 9 84° 33% - - 51° 85.9° 75.5° - - 1007.0
6/21 2:00pm 215 4 G 9 84° 33% - - 51° 85.9° 75.5° - - 1008.0
6/21 1:50pm 209 4 G 10 84° 32% - - 50° 85.9° 75.5° - - 1008.0
6/21 1:40pm 209 4 G 10 84° 32% - - 52° 85.9° 75.5° - - 1007.0
6/21 1:30pm 208 4 G 9 84° 31% - - 50° 85.9° 75.5° - - 1007.0
6/21 1:20pm 221 3 G 7 84° 29% - - 48° 85.9° 75.5° - - 1007.0
6/21 1:10pm 213 3 G 9 84° 31% - - 50° 85.9° 75.5° - - 1008.0
6/21 1:00pm 201 4 G 8 85° 30% - - 50° 85.9° 75.5° - - 1008.0
6/21 12:50pm 217 3 G 7 85° 27% - - 47° 85.9° 75.5° - - 1008.0
6/21 12:40pm 214 3 G 7 84° 27% - - 46° 85.9° 75.5° - - 1008.0
6/21 12:30pm 219 3 G 5 84° 26% - - 45° 85.9° 75.5° - - 1008.0
6/21 12:20pm 218 2 G 5 84° 25% - - 44° 85.9° 75.5° - - 1008.0
6/21 12:10pm 218 3 G 5 84° 25% - - 44° 85.9° 75.5° - - 1008.0
6/21 12:00pm 213 3 G 6 84° 21% - - 40° 85.9° 75.5° - - 1008.0
6/21 11:50am 206 3 G 6 84° 21% - - 40° 85.9° 75.5° - - 1008.0
6/21 11:40am 212 2 G 5 85° 20% - - 39° 85.9° 75.5° - - 1008.0
6/21 11:30am 202 3 G 6 84° 18% - - 37° 85.2° 75.5° - - 1008.0
6/21 11:20am 218 2 G 5 84° 18% - - 37° 85.2° 75.5° - - 1008.0
6/21 11:10am 229 3 G 5 84° 17% - - 34° 84.8° 75.5° - - 1008.0
6/21 11:00am 218 2 G 5 84° 16% - - 32° 84.7° 75.5° - - 1008.0
6/21 10:50am 226 2 G 5 84° 16% - - 33° 84.7° 75.5° - - 1008.0
6/21 10:40am 236 2 G 6 84° 14% - - 30° 84.6° 75.5° - - 1008.0
6/21 10:30am 232 2 G 6 83° 15% - - 30° 84.3° 75.5° - - 1008.0
6/21 10:20am 238 2 G 6 83° 14% - - 30° 84.3° 75.5° - - 1008.0
6/21 10:10am 242 2 G 6 83° 12% - - 26° 84.3° 75.5° - - 1008.0
6/21 10:00am 243 2 G 6 83° 13% - - 27° 84.3° 75.5° - - 1008.0
6/21 9:50am 240 2 G 5 83° 13% - - 27° 84.1° 75.5° - - 1008.0
6/21 9:40am 254 2 G 6 83° 14% - - 28° 84.1° 75.5° - - 1008.0
6/21 9:30am 253 2 G 5 83° 14% - - 28° 83.8° 75.5° - - 1008.0
6/21 9:20am 276 3 G 7 83° 12% - - 25° 83.4° 75.5° - - 1008.0
6/21 9:10am 281 3 G 6 82° 12% - - 24° 82.8° 75.5° - - 1008.0
6/21 9:00am 288 4 G 7 81° 11% - - 22° 81.7° 75.5° - - 1009.0
6/21 8:50am 299 3 G 8 81° 12% - - 22° 81.7° 75.5° - - 1009.0
6/21 8:40am 296 4 G 8 81° 11% - - 21° 81.1° 75.5° - - 1009.0
6/21 8:30am 294 4 G 9 80° 11% - - 20° 81.1° 75.5° - - 1009.0
6/21 8:20am 301 3 G 7 80° 12% - - 23° 80.4° 75.5° - - 1009.0
6/21 8:10am 304 4 G 7 79° 13% - - 24° 79.9° 75.5° - - 1009.0
6/21 8:00am 315 4 G 8 79° 13% - - 24° 79.6° 75.5° - - 1009.0
6/21 7:50am 313 4 G 8 79° 14% - - 25° 79.2° 75.5° - - 1009.0
6/21 7:40am 314 3 G 8 79° 14% - - 25° 79.1° 75.5° - - 1009.0
6/21 7:30am 317 4 G 10 78° 14% - - 24° 78.7° 75.5° - - 1009.0
6/21 7:20am 319 3 G 10 78° 14% - - 25° 78.7° 75.5° - - 1009.0
6/21 7:10am 324 3 G 7 78° 14% - - 25° 78.7° 75.5° - - 1009.0
6/21 7:00am 322 3 G 8 78° 14% - - 24° 78.7° 75.5° - - 1009.0
6/21 6:50am 323 3 G 9 78° 13% - - 23° 78.7° 75.5° - - 1009.0
6/21 6:40am 318 3 G 8 77° 12% - - 22° 78.7° 75.5° - - 1009.0
6/21 6:30am 317 4 G 8 77° 12% - - 21° 78.7° 75.5° - - 1009.0
6/21 6:20am 320 3 G 7 77° 12% - - 20° 78.7° 75.5° - - 1009.0
6/21 6:10am 328 3 G 9 77° 11% - - 19° 78.7° 75.5° - - 1010.0
6/21 6:00am 320 4 G 9 77° 11% - - 18° 78.7° 75.5° - - 1009.0
6/21 5:50am 321 3 G 9 77° 11% - - 18° 78.7° 75.5° - - 1009.0
6/21 5:40am 313 4 G 10 77° 10% - - 18° 78.7° 75.5° - - 1009.0
6/21 5:30am 321 4 G 9 77° 10% - - 18° 78.7° 75.5° - - 1009.0
6/21 5:20am 319 4 G 11 77° 11% - - 18° 78.7° 75.5° - - 1009.0
6/21 5:10am 315 4 G 10 77° 10% - - 17° 78.7° 75.5° - - 1009.0
6/21 5:00am 326 3 G 8 77° 10% - - 16° 78.7° 75.5° - - 1009.0
6/21 4:50am 332 3 G 9 77° 9% - - 15° 78.7° 75.5° - - 1009.0
6/21 4:40am 334 3 G 10 77° 9% - - 14° 78.7° 75.5° - - 1010.0
6/21 4:30am 329 3 G 6 77° 8% - - 12° 78.7° 75.5° - - 1010.0
6/21 4:20am 338 3 G 6 76° 8% - - 11° 78.7° 75.5° - - 1010.0
6/21 4:10am 349 3 G 5 76° 8% - - 10° 78.7° 75.5° - - 1010.0
6/21 4:00am 345 3 G 6 76° 8% - - 11° 78.7° 75.5° - - 1010.0
6/21 3:50am 350 2 G 4 76° 8% - - 11° 78.7° 75.5° - - 1010.0
6/21 3:40am 350 3 G 6 76° 8% - - 11° 78.7° 75.5° - - 1010.0
6/21 3:30am 349 3 G 6 76° 8% - - 12° 78.7° 75.5° - - 1010.0
6/21 3:20am 355 3 G 4 76° 8% - - 12° 78.7° 75.5° - - 1010.0
6/21 3:10am 357 3 G 5 76° 8% - - 11° 78.7° 75.5° - - 1010.0
6/21 3:00am 357 3 G 6 76° 8% - - 12° 78.7° 75.5° - - 1010.0
6/21 2:50am 348 3 G 5 76° 8% - - 12° 78.7° 75.5° - - 1010.0
6/21 2:40am 353 3 G 5 76° 9% - - 13° 78.7° 75.5° - - 1010.0
6/21 2:30am 358 3 G 6 76° 9% - - 13° 78.7° 75.6° - - 1010.0
6/21 2:20am 354 3 G 10 76° 9% - - 14° 78.7° 75.6° - - 1010.0
6/21 2:10am 351 3 G 6 76° 9% - - 13° 78.7° 75.7° - - 1010.0
6/21 2:00am 348 3 G 5 77° 9% - - 13° 78.7° 75.7° - - 1010.0
6/21 1:50am 342 3 G 7 77° 9% - - 14° 78.7° 75.7° - - 1010.0
6/21 1:40am 342 3 G 8 77° 9% - - 14° 78.7° 75.7° - - 1010.0
6/21 1:30am 342 3 G 5 77° 9% - - 15° 78.7° 75.7° - - 1011.0
6/21 1:20am 348 3 G 8 76° 10% - - 15° 78.7° 75.7° - - 1011.0
6/21 1:10am 347 3 G 6 76° 11% - - 17° 78.7° 75.8° - - 1011.0
6/21 1:00am 344 3 G 5 77° 11% - - 18° 78.7° 76.5° - - 1011.0
6/21 12:50am 338 4 G 7 78° 10% - - 17° 78.7° 76.5° - - 1010.0
6/21 12:40am 335 3 G 7 78° 10% - - 16° 78.7° 76.5° - - 1010.0
6/21 12:30am 340 3 G 7 77° 10% - - 17° 78.7° 76.5° - - 1011.0
6/21 12:20am 338 3 G 6 78° 10% - - 16° 78.7° 77.1° - - 1011.0
6/21 12:10am 339 4 G 7 78° 10% - - 16° 78.7° 77.2° - - 1011.0
6/21 12:00am 334 4 G 9 78° 9% - - 14° 86.9° 74.8° - - 1011.0
6/20 11:50pm 333 4 G 9 78° 9% - - 15° 86.9° 74.8° - - 1011.0
6/20 11:40pm 337 4 G 9 78° 10% - - 18° 86.9° 74.8° - - 1011.0
6/20 11:30pm 335 4 G 9 78° 11% - - 19° 86.9° 74.8° - - 1011.0
6/20 11:20pm 331 4 G 9 78° 11% - - 20° 86.9° 74.8° - - 1011.0
6/20 11:10pm 327 4 G 9 78° 12% - - 22° 86.9° 74.8° - - 1011.0
6/20 11:00pm 329 4 G 9 78° 11% - - 20° 86.9° 74.8° - - 1011.0
6/20 10:50pm 333 4 G 11 78° 11% - - 20° 86.9° 74.8° - - 1011.0
6/20 10:40pm 332 4 G 10 78° 12% - - 22° 86.9° 74.8° - - 1011.0
6/20 10:30pm 330 4 G 9 78° 14% - - 26° 86.9° 74.8° - - 1011.0
6/20 10:20pm 327 5 G 10 79° 12% - - 23° 86.9° 74.8° - - 1011.0
6/20 10:10pm 323 5 G 9 79° 10% - - 18° 86.9° 74.8° - - 1011.0
6/20 10:00pm 321 4 G 11 79° 12% - - 22° 86.9° 74.8° - - 1011.0
6/20 9:50pm 322 4 G 8 78° 12% - - 22° 86.9° 74.8° - - 1011.0
6/20 9:40pm 327 4 G 11 77° 17% - - 29° 86.9° 74.8° - - 1011.0
6/20 9:30pm 334 4 G 8 76° 28% - - 41° 86.9° 74.8° - - 1012.0
6/20 9:20pm 344 3 G 5 75° 38% - - 48° 86.9° 74.8° - - 1012.0
6/20 9:10pm 350 3 G 5 75° 39% - - 49° 86.9° 75° - - 1012.0
6/20 9:00pm 352 4 G 6 75° 37% - - 48° 86.9° 75° - - 1012.0
6/20 8:50pm 354 4 G 7 76° 36% - - 47° 86.9° 75.3° - - 1012.0
6/20 8:40pm 352 3 G 7 76° 37% - - 48° 86.9° 75.4° - - 1012.0
6/20 8:30pm 351 4 G 7 76° 38% - - 49° 86.9° 75.5° - - 1012.0
6/20 8:20pm 344 4 G 6 77° 38% - - 49° 86.9° 76.2° - - 1011.0
6/20 8:10pm 342 3 G 6 77° 38% - - 50° 86.9° 76.6° - - 1011.0
6/20 8:00pm 347 4 G 6 77° 39% - - 50° 86.9° 76.8° - - 1011.0
6/20 7:50pm 339 3 G 7 78° 38% - - 50° 86.9° 77.2° - - 1011.0
6/20 7:40pm 339 3 G 7 79° 38% - - 51° 86.9° 78.1° - - 1010.0
6/20 7:30pm 339 4 G 7 79° 37% - - 51° 86.9° 78.4° - - 1010.0
6/20 7:20pm 339 3 G 8 80° 36% - - 51° 86.9° 78.4° - - 1010.0
6/20 7:10pm 332 3 G 8 81° 33% - - 49° 86.9° 78.4° - - 1010.0
6/20 7:00pm 334 3 G 7 81° 31% - - 48° 86.9° 78.4° - - 1010.0
6/20 6:50pm 332 3 G 7 82° 29% - - 47° 86.9° 78.4° - - 1009.0
6/20 6:40pm 330 3 G 7 82° 29% - - 47° 86.9° 78.4° - - 1009.0
6/20 6:30pm 323 3 G 6 83° 27% - - 46° 86.9° 78.4° - - 1009.0
6/20 6:20pm 319 2 G 9 84° 24% - - 44° 86.9° 78.4° - - 1009.0
6/20 6:10pm 314 3 G 7 85° 23% - - 43° 86.9° 78.4° - - 1008.0
6/20 6:00pm 319 2 G 6 85° 21% - - 41° 86.9° 78.4° - - 1008.0